Terminal Aerodrome Forecast
Issued by NWS Wilmington, NC

Home | Current Version | Previous Version | Text Only | Print | Product List | Glossary On
Versions: 1 2 3 4 5 6 7 8 9 10 11 12 13 14 15 16 17 18 19 20 21 22 23 24 25 26 27 28 29 30
000
FTUS42 KILM 250520
TAFILM
TAF
KILM 250520Z 2506/2606 00000KT P6SM SKC
      TEMPO 2508/2510 4SM BR
     FM251000 04003KT P6SM BKN009 BKN015
     FM251200 04007KT P6SM BKN015
     FM251400 08009KT P6SM VCSH SCT020 BKN050
     FM260100 06007KT P6SM BKN020=

USA.gov is the U.S. government's official web portal to all federal, state and local government web resources and services.